createdAt,value
2018-01-16T00:00:02.138Z,4.50
2018-01-16T00:02:29.722Z,4.50
2018-01-16T00:04:57.286Z,4.50
2018-01-16T00:07:25.402Z,4.50
2018-01-16T00:09:53.061Z,4.50
2018-01-16T00:12:20.840Z,4.60
2018-01-16T00:14:48.384Z,4.60
2018-01-16T00:17:15.877Z,4.60
2018-01-16T00:19:44.179Z,4.70
2018-01-16T00:22:11.670Z,4.70
2018-01-16T00:24:39.184Z,4.80
2018-01-16T00:27:06.670Z,4.80
2018-01-16T00:29:34.171Z,4.80
2018-01-16T00:32:01.686Z,4.90
2018-01-16T00:34:29.939Z,5.00
2018-01-16T00:36:57.418Z,5.00
2018-01-16T00:39:24.957Z,5.00
2018-01-16T00:41:52.517Z,5.10
2018-01-16T00:44:20.145Z,5.10
2018-01-16T00:46:47.723Z,5.20
2018-01-16T00:49:15.210Z,5.20
2018-01-16T00:51:42.705Z,5.30
2018-01-16T00:54:10.186Z,5.30
2018-01-16T00:56:38.540Z,5.30
2018-01-16T00:59:06.018Z,5.30
2018-01-16T01:01:33.514Z,5.30
2018-01-16T01:04:01.014Z,5.40
2018-01-16T01:06:28.510Z,5.40
2018-01-16T01:08:56.068Z,5.50
2018-01-16T01:11:23.626Z,5.50
2018-01-16T01:13:51.820Z,5.60
2018-01-16T01:16:19.327Z,5.60
2018-01-16T01:18:46.943Z,5.60
2018-01-16T01:21:14.465Z,5.70
2018-01-16T01:23:41.950Z,5.70
2018-01-16T01:26:09.510Z,5.70
2018-01-16T01:28:37.064Z,5.70
2018-01-16T01:31:04.591Z,5.70
2018-01-16T01:33:32.112Z,5.80
2018-01-16T01:35:59.634Z,5.80
2018-01-16T01:38:27.254Z,5.90
2018-01-16T01:40:54.824Z,5.80
2018-01-16T01:43:23.296Z,5.90
2018-01-16T01:45:50.877Z,5.90
2018-01-16T01:48:20.058Z,6.00
2018-01-16T01:50:47.615Z,6.00
2018-01-16T01:53:18.279Z,6.10
2018-01-16T01:55:45.780Z,6.20
2018-01-16T01:58:13.430Z,6.20
2018-01-16T02:00:43.769Z,6.20
2018-01-16T02:03:12.730Z,6.20
2018-01-16T02:05:40.373Z,6.20
2018-01-16T02:08:09.442Z,6.10
2018-01-16T02:10:37.718Z,6.20
2018-01-16T02:13:05.259Z,6.20
2018-01-16T02:15:32.806Z,6.20
2018-01-16T02:18:00.335Z,6.20
2018-01-16T02:20:28.076Z,6.10
2018-01-16T02:22:55.657Z,6.10
2018-01-16T02:25:23.179Z,6.10
2018-01-16T02:27:51.464Z,6.20
2018-01-16T02:30:20.820Z,6.20
2018-01-16T02:32:48.318Z,6.20
2018-01-16T02:35:16.678Z,6.20
2018-01-16T02:37:44.222Z,6.20
2018-01-16T02:40:11.750Z,6.20
2018-01-16T02:42:40.187Z,6.20
2018-01-16T02:45:08.451Z,6.20
2018-01-16T02:47:36.013Z,6.20
2018-01-16T02:50:04.129Z,6.10
2018-01-16T02:52:31.682Z,6.00
2018-01-16T02:54:59.196Z,6.00
2018-01-16T02:57:26.686Z,5.90
2018-01-16T02:59:54.207Z,5.80
2018-01-16T03:02:22.287Z,5.80
2018-01-16T03:04:50.629Z,5.60
2018-01-16T03:07:18.170Z,5.60
2018-01-16T03:09:45.742Z,5.60
2018-01-16T03:12:13.361Z,5.60
2018-01-16T03:14:40.972Z,5.70
2018-01-16T03:17:08.504Z,5.70
2018-01-16T03:19:36.091Z,5.80
2018-01-16T03:22:03.652Z,5.80
2018-01-16T03:24:31.207Z,5.80
2018-01-16T03:26:58.718Z,5.80
2018-01-16T03:29:28.157Z,5.90
2018-01-16T03:31:56.546Z,5.90
2018-01-16T03:34:24.035Z,5.90
2018-01-16T03:36:51.558Z,5.90
2018-01-16T03:39:19.103Z,6.00
2018-01-16T03:41:46.569Z,6.10
2018-01-16T03:44:14.059Z,6.10
2018-01-16T03:46:41.545Z,6.10
2018-01-16T03:49:09.819Z,6.20
2018-01-16T03:51:37.358Z,6.20
2018-01-16T03:54:05.058Z,6.20
2018-01-16T03:56:34.587Z,6.10
2018-01-16T03:59:02.267Z,6.10
2018-01-16T04:01:29.773Z,6.00
2018-01-16T04:03:58.736Z,5.90
2018-01-16T04:06:26.219Z,5.90
2018-01-16T04:08:53.688Z,5.80
2018-01-16T04:11:21.270Z,5.80
2018-01-16T04:13:48.791Z,5.80
2018-01-16T04:16:16.351Z,5.90
2018-01-16T04:18:43.846Z,5.90
2018-01-16T04:21:11.534Z,5.90
2018-01-16T04:23:39.131Z,5.80
2018-01-16T04:26:06.715Z,5.80
2018-01-16T04:28:35.015Z,5.90
2018-01-16T04:31:02.577Z,5.90
2018-01-16T04:33:30.139Z,5.90
2018-01-16T04:35:57.654Z,5.90
2018-01-16T04:38:25.188Z,5.90
2018-01-16T04:40:53.457Z,5.70
2018-01-16T04:43:20.987Z,5.70
2018-01-16T04:45:48.498Z,5.70
2018-01-16T04:48:15.996Z,5.70
2018-01-16T04:50:43.458Z,5.80
2018-01-16T04:53:11.027Z,5.70
2018-01-16T04:55:38.505Z,5.60
2018-01-16T04:58:06.004Z,5.70
2018-01-16T05:00:33.729Z,5.60
2018-01-16T05:03:01.264Z,5.60
2018-01-16T05:05:32.405Z,5.50
2018-01-16T05:07:59.956Z,5.50
2018-01-16T05:10:27.465Z,5.50
2018-01-16T05:12:55.129Z,5.50
2018-01-16T05:15:22.768Z,5.50
2018-01-16T05:17:50.609Z,5.40
2018-01-16T05:20:21.597Z,5.40
2018-01-16T05:22:49.209Z,5.40
2018-01-16T05:25:17.541Z,5.40
2018-01-16T05:27:50.350Z,5.40
2018-01-16T05:30:17.978Z,5.40
2018-01-16T05:32:45.641Z,5.40
2018-01-16T05:35:13.452Z,5.30
2018-01-16T07:06:45.767Z,6.20
2018-01-16T07:09:14.416Z,6.20
2018-01-16T07:11:49.306Z,6.00
2018-01-16T07:14:20.554Z,5.80
2018-01-16T07:16:48.440Z,5.60
2018-01-16T07:19:18.851Z,5.50
2018-01-16T07:21:47.604Z,5.40
2018-01-16T07:24:15.309Z,5.40
2018-01-16T07:26:43.407Z,5.20
2018-01-16T07:29:10.939Z,5.00
2018-01-16T07:31:43.247Z,4.90
2018-01-16T07:34:20.554Z,4.80
2018-01-16T07:36:48.148Z,4.70
2018-01-16T07:39:15.875Z,4.60
2018-01-16T07:41:45.618Z,4.40
2018-01-16T07:44:15.995Z,4.40
2018-01-16T07:46:44.366Z,4.40
2018-01-16T07:49:11.917Z,4.40
2018-01-16T07:51:52.585Z,4.40
2018-01-16T07:54:22.066Z,4.40
2018-01-16T07:56:50.505Z,4.50
2018-01-16T07:59:24.419Z,4.50
2018-01-16T08:02:00.541Z,4.60
2018-01-16T08:07:18.670Z,4.60
2018-01-16T08:10:06.630Z,4.50
2018-01-16T08:15:07.390Z,4.60
2018-01-16T08:17:37.105Z,4.60
2018-01-16T08:20:08.841Z,4.60
2018-01-16T08:22:51.285Z,4.80
2018-01-16T08:28:07.266Z,4.90
2018-01-16T08:30:37.764Z,4.90
2018-01-16T08:33:12.998Z,5.00
2018-01-16T08:35:44.446Z,5.10
2018-01-16T08:38:14.246Z,5.10
2018-01-16T08:40:52.230Z,5.20
2018-01-16T08:43:23.791Z,5.20
2018-01-16T08:45:53.678Z,5.20
2018-01-16T08:48:38.453Z,5.20
2018-01-16T08:51:09.171Z,5.20
2018-01-16T08:53:39.546Z,5.20
2018-01-16T08:56:07.737Z,5.10
2018-01-16T08:58:36.308Z,5.20
2018-01-16T09:01:03.925Z,5.10
2018-01-16T09:03:31.709Z,5.10
2018-01-16T09:05:59.263Z,5.00
2018-01-16T09:08:26.809Z,5.00
2018-01-16T09:10:54.468Z,4.90
2018-01-16T09:13:22.126Z,4.90
2018-01-16T09:15:54.822Z,4.90
2018-01-16T09:18:23.114Z,4.80
2018-01-16T09:20:50.636Z,4.80
2018-01-16T09:23:19.020Z,5.00
2018-01-16T09:25:47.248Z,5.00
2018-01-16T09:28:15.560Z,5.00
2018-01-16T09:30:44.837Z,5.00
2018-01-16T09:33:12.336Z,5.00
2018-01-16T09:35:39.867Z,5.00
2018-01-16T09:38:11.974Z,5.00
2018-01-16T09:40:39.481Z,4.90
2018-01-16T09:43:06.958Z,4.90
2018-01-16T09:45:35.398Z,5.00
2018-01-16T09:48:03.094Z,5.00
2018-01-16T09:50:38.316Z,5.00
2018-01-16T09:53:06.142Z,5.10
2018-01-16T09:55:33.680Z,5.10
2018-01-16T09:58:01.205Z,5.20
2018-01-16T10:00:32.413Z,5.20
2018-01-16T10:03:04.844Z,5.30
2018-01-16T10:05:33.203Z,5.20
2018-01-16T10:08:03.877Z,5.20
2018-01-16T10:10:32.282Z,5.30
2018-01-16T10:13:06.781Z,5.30
2018-01-16T10:15:34.301Z,5.20
2018-01-16T10:18:01.788Z,5.20
2018-01-16T10:20:29.346Z,5.30
2018-01-16T10:22:56.840Z,5.30
2018-01-16T10:25:24.306Z,5.40
2018-01-16T10:27:51.790Z,5.40
2018-01-16T10:30:19.257Z,5.60
2018-01-16T10:32:46.712Z,5.70
2018-01-16T10:35:14.945Z,6.00
2018-01-16T10:37:42.441Z,5.90
2018-01-16T10:40:09.888Z,5.90
2018-01-16T10:42:37.340Z,6.00
2018-01-16T10:45:04.827Z,6.10
2018-01-16T10:47:32.281Z,6.10
2018-01-16T10:50:00.508Z,6.00
2018-01-16T10:52:34.111Z,5.90
2018-01-16T10:55:01.781Z,5.80
2018-01-16T10:57:59.243Z,5.80
2018-01-16T11:05:39.894Z,5.90
2018-01-16T11:08:07.397Z,5.90
2018-01-16T11:10:35.009Z,5.90
2018-01-16T11:13:02.471Z,5.90
2018-01-16T11:15:29.938Z,6.00
2018-01-16T11:17:57.410Z,6.00
2018-01-16T11:20:24.870Z,5.90
2018-01-16T11:22:52.321Z,5.90
2018-01-16T11:25:19.775Z,6.00
2018-01-16T11:27:47.242Z,6.00
2018-01-16T11:30:14.713Z,6.00
2018-01-16T11:32:42.202Z,6.00
2018-01-16T11:35:10.412Z,5.80
2018-01-16T11:37:37.866Z,5.80
2018-01-16T11:40:05.350Z,5.70
2018-01-16T11:42:32.838Z,5.70
2018-01-16T11:45:00.308Z,5.70
2018-01-16T11:47:27.801Z,5.80
2018-01-16T11:49:55.299Z,5.90
2018-01-16T11:52:22.750Z,6.00
2018-01-16T11:54:50.230Z,6.00
2018-01-16T11:57:17.722Z,6.00
2018-01-16T11:59:45.159Z,6.10
2018-01-16T12:02:12.612Z,6.10
2018-01-16T12:04:40.843Z,6.30
2018-01-16T12:07:08.300Z,6.30
2018-01-16T12:09:35.753Z,6.40
2018-01-16T12:12:03.260Z,6.40
2018-01-16T12:14:31.502Z,6.40
2018-01-16T12:16:58.961Z,6.40
2018-01-16T12:19:26.430Z,6.50
2018-01-16T12:21:53.885Z,6.50
2018-01-16T12:24:21.339Z,6.40
2018-01-16T12:26:48.784Z,6.40
2018-01-16T12:29:16.255Z,6.50
2018-01-16T12:31:43.709Z,6.50
2018-01-16T12:34:11.447Z,6.60
2018-01-16T12:36:38.926Z,6.50
2018-01-16T12:39:06.727Z,6.50
2018-01-16T12:41:40.081Z,6.40
2018-01-16T12:44:08.328Z,6.40
2018-01-16T12:46:35.772Z,6.30
2018-01-16T12:49:03.482Z,6.40
2018-01-16T12:51:30.976Z,6.30
2018-01-16T12:53:58.453Z,6.30
2018-01-16T12:56:25.910Z,6.30
2018-01-16T12:58:53.375Z,6.20
2018-01-16T13:01:20.830Z,6.20
2018-01-16T13:03:48.323Z,6.10
2018-01-16T13:06:15.783Z,6.10
2018-01-16T13:08:43.250Z,6.10
2018-01-16T13:11:11.461Z,6.20
2018-01-16T13:13:38.922Z,6.20
2018-01-16T13:18:56.890Z,6.20
2018-01-16T13:21:24.309Z,6.20
2018-01-16T13:23:51.794Z,6.30
2018-01-16T13:26:19.379Z,6.30
2018-01-16T13:28:48.443Z,6.30
2018-01-16T13:31:15.904Z,6.50
2018-01-16T13:33:43.374Z,6.50
2018-01-16T13:36:10.845Z,6.50
2018-01-16T13:38:38.407Z,6.50
2018-01-16T13:41:11.265Z,6.50
2018-01-16T13:43:38.909Z,6.40
2018-01-16T13:46:06.436Z,6.40
2018-01-16T13:48:33.879Z,6.30
2018-01-16T13:51:01.346Z,6.30
2018-01-16T13:53:28.805Z,6.30
2018-01-16T13:55:57.087Z,5.70
2018-01-16T13:58:24.630Z,5.70
2018-01-16T14:00:52.117Z,5.30
2018-01-16T14:03:25.270Z,4.90
2018-01-16T14:05:52.758Z,4.70
2018-01-16T14:08:20.243Z,4.40
2018-01-16T14:10:47.704Z,4.20
2018-01-16T14:13:15.990Z,4.10
2018-01-16T14:15:43.494Z,4.10
2018-01-16T14:18:10.956Z,4.10
2018-01-16T14:20:40.018Z,4.00
2018-01-16T14:23:07.643Z,4.00
2018-01-16T14:25:35.151Z,4.10
2018-01-16T14:28:02.700Z,4.10
2018-01-16T14:30:30.441Z,4.10
2018-01-16T14:32:57.959Z,4.10
2018-01-16T14:35:26.216Z,4.20
2018-01-16T14:37:54.758Z,4.20
2018-01-16T14:40:22.302Z,4.20
2018-01-16T14:42:49.873Z,4.30
2018-01-16T14:45:17.619Z,4.20
2018-01-16T14:47:45.110Z,4.20
2018-01-16T14:50:12.565Z,4.20
2018-01-16T14:52:40.023Z,4.20
2018-01-16T14:55:07.536Z,4.20
2018-01-16T14:57:34.989Z,4.20
2018-01-16T15:00:02.462Z,4.20
2018-01-16T15:02:29.929Z,4.10
2018-01-16T15:04:57.394Z,4.10
2018-01-16T15:07:24.871Z,4.00
2018-01-16T15:09:52.326Z,4.00
2018-01-16T15:12:19.791Z,4.00
2018-01-16T15:14:47.273Z,4.00
2018-01-16T15:17:14.763Z,4.00
2018-01-16T15:19:42.222Z,4.00
2018-01-16T15:22:09.718Z,4.10
2018-01-16T15:24:37.177Z,4.10
2018-01-16T15:27:04.646Z,4.10
2018-01-16T15:29:32.097Z,4.10
2018-01-16T15:31:59.548Z,4.20
2018-01-16T15:34:27.021Z,4.20
2018-01-16T15:36:55.238Z,4.40
2018-01-16T15:39:22.706Z,4.40
2018-01-16T15:41:50.165Z,4.30
2018-01-16T15:44:17.654Z,4.20
2018-01-16T15:46:45.102Z,4.30
2018-01-16T15:49:12.572Z,4.30
2018-01-16T15:51:40.038Z,4.20
2018-01-16T15:54:07.494Z,4.20
2018-01-16T15:56:35.008Z,4.20
2018-01-16T15:59:02.470Z,4.20
2018-01-16T16:01:29.943Z,4.20
2018-01-16T16:03:57.393Z,4.20
2018-01-16T16:06:24.843Z,4.10
2018-01-16T16:08:52.302Z,4.10
2018-01-16T16:11:19.814Z,4.10
2018-01-16T16:13:47.293Z,4.10
2018-01-16T16:16:14.751Z,4.10
2018-01-16T16:18:42.214Z,4.10
2018-01-16T16:21:09.682Z,3.90
2018-01-16T16:23:37.152Z,3.70
2018-01-16T16:26:04.601Z,3.60
2018-01-16T16:28:32.073Z,3.60
2018-01-16T16:30:59.530Z,3.50
2018-01-16T16:33:26.984Z,3.40
2018-01-16T16:35:54.458Z,3.30
2018-01-16T16:38:21.914Z,3.30
2018-01-16T16:40:49.389Z,3.20
2018-01-16T16:43:16.850Z,3.20
2018-01-16T16:45:45.062Z,3.10
2018-01-16T16:48:12.542Z,3.10
2018-01-16T16:50:40.000Z,3.10
2018-01-16T16:53:07.462Z,2.90
2018-01-16T16:55:34.922Z,2.90
2018-01-16T16:58:02.372Z,2.80
2018-01-16T17:00:29.834Z,2.80
2018-01-16T17:02:57.443Z,2.80
2018-01-16T17:05:24.899Z,2.80
2018-01-16T17:07:52.344Z,2.80
2018-01-16T17:10:20.567Z,2.70
2018-01-16T17:12:48.019Z,2.70
2018-01-16T17:15:15.550Z,2.80
2018-01-16T17:17:43.039Z,2.70
2018-01-16T17:20:20.897Z,2.70
2018-01-16T17:22:48.431Z,2.70
2018-01-16T17:25:16.667Z,2.70
2018-01-16T17:27:48.559Z,2.70
2018-01-16T17:30:16.094Z,2.70
2018-01-16T17:32:43.566Z,2.70
2018-01-16T17:35:11.034Z,2.70
2018-01-16T17:37:38.510Z,2.70
2018-01-16T17:40:06.397Z,2.70
2018-01-16T17:42:34.996Z,2.70
2018-01-16T17:45:02.461Z,2.70
2018-01-16T17:47:30.852Z,2.70
2018-01-16T17:49:58.325Z,2.80
2018-01-16T17:52:25.761Z,2.80
2018-01-16T17:54:53.450Z,2.90
2018-01-16T17:57:36.520Z,2.90
2018-01-16T18:00:04.288Z,2.90
2018-01-16T18:02:31.746Z,3.10
2018-01-16T18:04:59.237Z,3.10
2018-01-16T18:07:26.718Z,3.10
2018-01-16T18:09:54.159Z,3.10
2018-01-16T18:12:21.778Z,3.10
2018-01-16T18:14:49.249Z,3.10
2018-01-16T18:17:16.747Z,3.10
2018-01-16T18:19:44.223Z,3.10
2018-01-16T18:22:12.500Z,3.20
2018-01-16T18:24:47.210Z,3.20
2018-01-16T18:27:14.733Z,3.20
2018-01-16T18:29:42.224Z,3.20
2018-01-16T18:32:09.764Z,3.20
2018-01-16T18:34:37.266Z,3.20
2018-01-16T18:37:04.739Z,3.20
2018-01-16T18:39:32.206Z,3.10
2018-01-16T18:41:59.736Z,3.10
2018-01-16T18:44:27.251Z,3.10
2018-01-16T18:46:54.711Z,3.00
2018-01-16T18:49:22.200Z,2.90
2018-01-16T18:51:50.487Z,2.90
2018-01-16T18:54:17.949Z,2.80
2018-01-16T18:56:45.447Z,2.80
2018-01-16T18:59:12.922Z,2.80
2018-01-16T19:01:40.386Z,2.80
2018-01-16T19:04:07.989Z,2.70
2018-01-16T19:06:35.534Z,2.80
2018-01-16T19:09:03.085Z,2.70
2018-01-16T19:11:30.571Z,2.70
2018-01-16T19:13:58.054Z,2.80
2018-01-16T19:16:25.518Z,2.70
2018-01-16T19:18:53.027Z,2.70
2018-01-16T19:21:20.485Z,2.80
2018-01-16T19:23:47.961Z,2.80
2018-01-16T19:26:15.433Z,2.90
2018-01-16T19:28:43.008Z,2.90
2018-01-16T19:31:10.671Z,2.90
2018-01-16T19:33:38.176Z,3.00
2018-01-16T19:36:06.206Z,3.00
2018-01-16T19:38:33.701Z,3.10
2018-01-16T19:41:01.182Z,3.10
2018-01-16T19:43:28.693Z,3.20
2018-01-16T19:45:59.026Z,3.30
2018-01-16T19:48:33.034Z,3.30
2018-01-16T19:51:01.026Z,3.30
2018-01-16T19:53:28.542Z,3.30
2018-01-16T19:55:56.175Z,3.30
2018-01-16T19:58:23.821Z,3.40
2018-01-16T20:00:51.433Z,3.40
2018-01-16T20:03:19.702Z,3.30
2018-01-16T20:05:47.217Z,3.30
2018-01-16T20:08:14.842Z,3.40
2018-01-16T20:10:43.188Z,3.40
2018-01-16T20:13:10.729Z,3.50
2018-01-16T20:15:42.761Z,3.40
2018-01-16T20:18:10.468Z,3.50
2018-01-16T20:20:37.999Z,3.50
2018-01-16T20:23:05.510Z,3.40
2018-01-16T20:25:41.517Z,3.40
2018-01-16T20:28:10.218Z,3.40
2018-01-16T20:30:38.854Z,3.40
2018-01-16T20:33:06.536Z,3.50
2018-01-16T20:35:34.076Z,3.50
2018-01-16T20:38:01.619Z,3.50
2018-01-16T20:40:29.158Z,3.50
2018-01-16T20:42:56.737Z,3.40
2018-01-16T20:45:26.670Z,3.40
2018-01-16T20:47:54.158Z,3.40
2018-01-16T20:50:21.721Z,3.40
2018-01-16T20:52:49.471Z,3.40
2018-01-16T20:55:16.958Z,3.50
2018-01-16T20:57:44.557Z,3.50
2018-01-16T21:00:12.257Z,3.60
2018-01-16T21:02:39.891Z,3.50
2018-01-16T21:05:07.488Z,3.60
2018-01-16T21:07:34.965Z,3.60
2018-01-16T21:10:02.777Z,3.60
2018-01-16T21:12:30.445Z,3.60
2018-01-16T21:14:58.015Z,3.60
2018-01-16T21:17:25.517Z,3.60
2018-01-16T21:19:53.316Z,3.60
2018-01-16T21:22:21.660Z,3.50
2018-01-16T21:24:49.131Z,3.50
2018-01-16T21:27:16.999Z,3.50
2018-01-16T21:29:44.555Z,3.50
2018-01-16T21:32:12.873Z,3.40
2018-01-16T21:34:40.376Z,3.30
2018-01-16T21:37:08.180Z,3.40
2018-01-16T21:39:35.746Z,3.30
2018-01-16T21:42:04.111Z,3.30
2018-01-16T21:44:31.650Z,3.30
2018-01-16T21:46:59.235Z,3.30
2018-01-16T21:49:26.827Z,3.30
2018-01-16T21:51:54.335Z,3.30
2018-01-16T21:54:21.853Z,3.30
2018-01-16T21:56:49.473Z,3.30
2018-01-16T21:59:17.465Z,3.40
2018-01-16T22:01:44.932Z,3.40
2018-01-16T22:04:12.410Z,3.40
2018-01-16T22:06:39.904Z,3.40
2018-01-16T22:09:07.450Z,3.40
2018-01-16T22:11:35.166Z,3.40
2018-01-16T22:14:02.749Z,3.40
2018-01-16T22:16:30.249Z,3.40
2018-01-16T22:18:58.582Z,3.40
2018-01-16T22:21:26.125Z,3.30
2018-01-16T22:23:53.858Z,3.40
2018-01-16T22:26:21.446Z,3.40
2018-01-16T22:28:49.008Z,3.40
2018-01-16T22:31:16.530Z,3.50
2018-01-16T22:33:44.044Z,3.50
2018-01-16T22:36:11.555Z,3.50
2018-01-16T22:38:39.094Z,3.50
2018-01-16T22:41:06.854Z,3.50
2018-01-16T22:43:34.377Z,3.50
2018-01-16T22:46:01.915Z,3.50
2018-01-16T22:48:29.516Z,3.50
2018-01-16T22:50:56.996Z,3.50
2018-01-16T22:53:24.442Z,3.50
2018-01-16T22:55:52.055Z,3.50
2018-01-16T22:58:19.548Z,3.40
2018-01-16T23:00:47.052Z,3.50
2018-01-16T23:03:14.606Z,3.40
2018-01-16T23:05:42.091Z,3.40
2018-01-16T23:08:09.723Z,3.40
2018-01-16T23:10:37.204Z,3.40
2018-01-16T23:13:05.754Z,3.30
2018-01-16T23:15:33.305Z,3.30
2018-01-16T23:18:03.357Z,3.30
2018-01-16T23:20:31.640Z,3.30
2018-01-16T23:23:00.178Z,3.20
2018-01-16T23:25:27.874Z,3.20
2018-01-16T23:27:55.489Z,3.20
2018-01-16T23:30:24.455Z,3.20
2018-01-16T23:32:53.137Z,3.20
2018-01-16T23:35:20.753Z,3.30
2018-01-16T23:37:48.317Z,3.30
2018-01-16T23:40:16.122Z,3.30
2018-01-16T23:42:43.706Z,3.30
2018-01-16T23:45:11.387Z,3.30
2018-01-16T23:47:39.044Z,3.30
2018-01-16T23:50:06.589Z,3.30
2018-01-16T23:52:34.215Z,3.40
2018-01-16T23:55:01.898Z,3.30
2018-01-16T23:57:29.609Z,3.40
2018-01-16T23:59:57.666Z,3.40
